sensor_id;sensor_type;location;lat;lon;timestamp;P1;durP1;ratioP1;P2;durP2;ratioP2
15198;SDS011;7700;48.654;9.070;2023-04-19T00:01:01;11.50;;;10.33;;
15198;SDS011;7700;48.654;9.070;2023-04-19T00:03:27;10.73;;;9.73;;
15198;SDS011;7700;48.654;9.070;2023-04-19T00:05:54;11.40;;;10.30;;
15198;SDS011;7700;48.654;9.070;2023-04-19T00:08:22;11.97;;;10.77;;
15198;SDS011;7700;48.654;9.070;2023-04-19T00:10:48;11.20;;;10.13;;
15198;SDS011;7700;48.654;9.070;2023-04-19T00:13:14;10.93;;;9.87;;
15198;SDS011;7700;48.654;9.070;2023-04-19T00:15:40;11.93;;;10.80;;
15198;SDS011;7700;48.654;9.070;2023-04-19T00:18:06;10.70;;;9.60;;
15198;SDS011;7700;48.654;9.070;2023-04-19T00:20:32;11.63;;;10.43;;
15198;SDS011;7700;48.654;9.070;2023-04-19T00:22:58;11.33;;;10.33;;
15198;SDS011;7700;48.654;9.070;2023-04-19T00:25:24;11.83;;;10.83;;
15198;SDS011;7700;48.654;9.070;2023-04-19T00:27:50;12.57;;;10.90;;
15198;SDS011;7700;48.654;9.070;2023-04-19T00:30:16;11.13;;;10.07;;
15198;SDS011;7700;48.654;9.070;2023-04-19T00:32:42;11.67;;;10.53;;
15198;SDS011;7700;48.654;9.070;2023-04-19T00:35:08;12.20;;;11.00;;
15198;SDS011;7700;48.654;9.070;2023-04-19T00:37:34;11.67;;;10.47;;
15198;SDS011;7700;48.654;9.070;2023-04-19T00:40:00;11.50;;;10.40;;
15198;SDS011;7700;48.654;9.070;2023-04-19T00:42:26;11.30;;;10.23;;
15198;SDS011;7700;48.654;9.070;2023-04-19T00:44:52;11.13;;;10.13;;
15198;SDS011;7700;48.654;9.070;2023-04-19T00:47:18;11.87;;;10.77;;
15198;SDS011;7700;48.654;9.070;2023-04-19T00:49:44;12.33;;;11.03;;
15198;SDS011;7700;48.654;9.070;2023-04-19T00:52:10;11.53;;;10.43;;
15198;SDS011;7700;48.654;9.070;2023-04-19T00:54:36;11.83;;;10.73;;
15198;SDS011;7700;48.654;9.070;2023-04-19T00:57:05;12.00;;;10.90;;
15198;SDS011;7700;48.654;9.070;2023-04-19T00:59:31;12.33;;;11.03;;
15198;SDS011;7700;48.654;9.070;2023-04-19T01:01:57;12.40;;;11.20;;
15198;SDS011;7700;48.654;9.070;2023-04-19T01:04:23;12.00;;;10.90;;
15198;SDS011;7700;48.654;9.070;2023-04-19T01:06:49;12.10;;;10.90;;
15198;SDS011;7700;48.654;9.070;2023-04-19T01:09:15;12.13;;;11.03;;
15198;SDS011;7700;48.654;9.070;2023-04-19T01:11:41;12.37;;;11.27;;
15198;SDS011;7700;48.654;9.070;2023-04-19T01:14:07;11.53;;;10.50;;
15198;SDS011;7700;48.654;9.070;2023-04-19T01:16:33;12.17;;;11.00;;
15198;SDS011;7700;48.654;9.070;2023-04-19T01:19:00;10.83;;;9.83;;
15198;SDS011;7700;48.654;9.070;2023-04-19T01:21:26;11.93;;;10.83;;
15198;SDS011;7700;48.654;9.070;2023-04-19T01:23:54;12.17;;;10.93;;
15198;SDS011;7700;48.654;9.070;2023-04-19T01:26:20;12.53;;;11.27;;
15198;SDS011;7700;48.654;9.070;2023-04-19T01:28:46;12.93;;;11.73;;
15198;SDS011;7700;48.654;9.070;2023-04-19T01:31:12;12.57;;;11.37;;
15198;SDS011;7700;48.654;9.070;2023-04-19T01:33:38;12.90;;;11.53;;
15198;SDS011;7700;48.654;9.070;2023-04-19T01:36:04;13.00;;;11.73;;
15198;SDS011;7700;48.654;9.070;2023-04-19T01:38:30;13.23;;;11.87;;
15198;SDS011;7700;48.654;9.070;2023-04-19T01:40:56;12.17;;;10.97;;
15198;SDS011;7700;48.654;9.070;2023-04-19T01:43:22;12.63;;;11.43;;
15198;SDS011;7700;48.654;9.070;2023-04-19T01:45:48;12.53;;;11.33;;
15198;SDS011;7700;48.654;9.070;2023-04-19T01:48:14;13.57;;;12.27;;
15198;SDS011;7700;48.654;9.070;2023-04-19T01:50:40;13.27;;;12.03;;
15198;SDS011;7700;48.654;9.070;2023-04-19T01:53:06;13.17;;;11.30;;
15198;SDS011;7700;48.654;9.070;2023-04-19T01:55:32;12.33;;;11.03;;
15198;SDS011;7700;48.654;9.070;2023-04-19T01:57:58;13.83;;;12.23;;
15198;SDS011;7700;48.654;9.070;2023-04-19T02:00:24;13.43;;;12.13;;
15198;SDS011;7700;48.654;9.070;2023-04-19T02:02:49;12.57;;;11.27;;
15198;SDS011;7700;48.654;9.070;2023-04-19T02:05:15;12.20;;;10.90;;
15198;SDS011;7700;48.654;9.070;2023-04-19T02:07:41;13.67;;;12.27;;
15198;SDS011;7700;48.654;9.070;2023-04-19T02:10:08;13.90;;;12.50;;
15198;SDS011;7700;48.654;9.070;2023-04-19T02:12:35;13.03;;;11.63;;
15198;SDS011;7700;48.654;9.070;2023-04-19T02:15:01;13.40;;;12.10;;
15198;SDS011;7700;48.654;9.070;2023-04-19T02:17:27;13.87;;;12.27;;
15198;SDS011;7700;48.654;9.070;2023-04-19T02:19:53;13.13;;;11.83;;
15198;SDS011;7700;48.654;9.070;2023-04-19T02:22:19;13.70;;;11.90;;
15198;SDS011;7700;48.654;9.070;2023-04-19T02:24:45;13.60;;;12.30;;
15198;SDS011;7700;48.654;9.070;2023-04-19T02:27:11;14.57;;;11.93;;
15198;SDS011;7700;48.654;9.070;2023-04-19T02:29:38;13.80;;;11.97;;
15198;SDS011;7700;48.654;9.070;2023-04-19T02:32:04;14.07;;;12.70;;
15198;SDS011;7700;48.654;9.070;2023-04-19T02:34:31;13.60;;;12.20;;
15198;SDS011;7700;48.654;9.070;2023-04-19T02:36:57;14.00;;;12.53;;
15198;SDS011;7700;48.654;9.070;2023-04-19T02:39:23;13.60;;;12.30;;
15198;SDS011;7700;48.654;9.070;2023-04-19T02:41:49;13.20;;;11.87;;
15198;SDS011;7700;48.654;9.070;2023-04-19T02:44:15;14.43;;;12.93;;
15198;SDS011;7700;48.654;9.070;2023-04-19T02:46:46;15.60;;;13.60;;
15198;SDS011;7700;48.654;9.070;2023-04-19T02:49:13;13.83;;;12.37;;
15198;SDS011;7700;48.654;9.070;2023-04-19T02:51:38;14.70;;;12.97;;
15198;SDS011;7700;48.654;9.070;2023-04-19T02:54:11;13.73;;;12.43;;
15198;SDS011;7700;48.654;9.070;2023-04-19T02:56:37;13.33;;;11.90;;
15198;SDS011;7700;48.654;9.070;2023-04-19T02:59:03;14.93;;;13.37;;
15198;SDS011;7700;48.654;9.070;2023-04-19T03:01:36;14.87;;;13.27;;
15198;SDS011;7700;48.654;9.070;2023-04-19T03:04:01;14.87;;;13.27;;
15198;SDS011;7700;48.654;9.070;2023-04-19T03:06:27;14.60;;;12.97;;
15198;SDS011;7700;48.654;9.070;2023-04-19T03:08:53;15.63;;;13.97;;
15198;SDS011;7700;48.654;9.070;2023-04-19T03:11:19;14.93;;;13.43;;
15198;SDS011;7700;48.654;9.070;2023-04-19T03:13:45;15.10;;;13.53;;
15198;SDS011;7700;48.654;9.070;2023-04-19T03:16:11;14.23;;;12.70;;
15198;SDS011;7700;48.654;9.070;2023-04-19T03:18:37;14.27;;;12.77;;
15198;SDS011;7700;48.654;9.070;2023-04-19T03:21:03;14.00;;;12.50;;
15198;SDS011;7700;48.654;9.070;2023-04-19T03:23:29;15.33;;;13.33;;
15198;SDS011;7700;48.654;9.070;2023-04-19T03:25:55;14.97;;;13.47;;
15198;SDS011;7700;48.654;9.070;2023-04-19T03:28:21;15.73;;;13.90;;
15198;SDS011;7700;48.654;9.070;2023-04-19T03:30:47;16.10;;;13.17;;
15198;SDS011;7700;48.654;9.070;2023-04-19T03:33:13;15.67;;;13.97;;
15198;SDS011;7700;48.654;9.070;2023-04-19T03:35:39;15.53;;;13.40;;
15198;SDS011;7700;48.654;9.070;2023-04-19T03:38:05;15.63;;;14.03;;
15198;SDS011;7700;48.654;9.070;2023-04-19T03:40:32;14.67;;;13.20;;
15198;SDS011;7700;48.654;9.070;2023-04-19T03:42:58;14.23;;;12.83;;
15198;SDS011;7700;48.654;9.070;2023-04-19T03:45:24;14.77;;;13.17;;
15198;SDS011;7700;48.654;9.070;2023-04-19T03:47:51;15.57;;;13.97;;
15198;SDS011;7700;48.654;9.070;2023-04-19T03:50:17;15.53;;;13.97;;
15198;SDS011;7700;48.654;9.070;2023-04-19T03:52:43;14.33;;;12.83;;
15198;SDS011;7700;48.654;9.070;2023-04-19T03:55:09;16.37;;;13.57;;
15198;SDS011;7700;48.654;9.070;2023-04-19T03:57:36;15.60;;;13.93;;
15198;SDS011;7700;48.654;9.070;2023-04-19T04:00:02;14.90;;;13.40;;
15198;SDS011;7700;48.654;9.070;2023-04-19T04:02:31;14.20;;;12.80;;
15198;SDS011;7700;48.654;9.070;2023-04-19T04:04:57;15.40;;;13.37;;
15198;SDS011;7700;48.654;9.070;2023-04-19T04:07:23;16.27;;;14.57;;
15198;SDS011;7700;48.654;9.070;2023-04-19T04:09:49;16.10;;;14.33;;
15198;SDS011;7700;48.654;9.070;2023-04-19T04:12:16;14.60;;;13.20;;
15198;SDS011;7700;48.654;9.070;2023-04-19T04:14:41;17.20;;;15.40;;
15198;SDS011;7700;48.654;9.070;2023-04-19T04:17:07;16.23;;;14.53;;
15198;SDS011;7700;48.654;9.070;2023-04-19T04:19:33;15.17;;;13.60;;
15198;SDS011;7700;48.654;9.070;2023-04-19T04:21:59;15.87;;;14.17;;
15198;SDS011;7700;48.654;9.070;2023-04-19T04:24:25;15.63;;;13.97;;
15198;SDS011;7700;48.654;9.070;2023-04-19T04:26:52;16.30;;;14.63;;
15198;SDS011;7700;48.654;9.070;2023-04-19T04:29:18;16.30;;;14.70;;
15198;SDS011;7700;48.654;9.070;2023-04-19T04:31:44;15.47;;;13.63;;
15198;SDS011;7700;48.654;9.070;2023-04-19T04:34:10;16.57;;;14.87;;
15198;SDS011;7700;48.654;9.070;2023-04-19T04:36:36;16.80;;;14.77;;
15198;SDS011;7700;48.654;9.070;2023-04-19T04:39:02;16.60;;;14.90;;
15198;SDS011;7700;48.654;9.070;2023-04-19T04:41:30;18.33;;;14.70;;
15198;SDS011;7700;48.654;9.070;2023-04-19T04:43:56;16.77;;;14.97;;
15198;SDS011;7700;48.654;9.070;2023-04-19T04:46:24;16.73;;;15.13;;
15198;SDS011;7700;48.654;9.070;2023-04-19T04:48:51;17.40;;;14.60;;
15198;SDS011;7700;48.654;9.070;2023-04-19T04:51:17;17.50;;;14.67;;
15198;SDS011;7700;48.654;9.070;2023-04-19T04:53:43;18.07;;;16.17;;
15198;SDS011;7700;48.654;9.070;2023-04-19T04:56:09;17.43;;;15.73;;
15198;SDS011;7700;48.654;9.070;2023-04-19T04:58:35;19.13;;;15.20;;
15198;SDS011;7700;48.654;9.070;2023-04-19T05:01:01;17.63;;;15.73;;
15198;SDS011;7700;48.654;9.070;2023-04-19T05:03:26;18.83;;;16.17;;
15198;SDS011;7700;48.654;9.070;2023-04-19T05:05:52;17.27;;;15.50;;
15198;SDS011;7700;48.654;9.070;2023-04-19T05:08:19;20.07;;;16.37;;
15198;SDS011;7700;48.654;9.070;2023-04-19T05:10:45;17.83;;;15.80;;
15198;SDS011;7700;48.654;9.070;2023-04-19T05:13:11;18.00;;;15.43;;
15198;SDS011;7700;48.654;9.070;2023-04-19T05:15:36;17.07;;;15.33;;
15198;SDS011;7700;48.654;9.070;2023-04-19T05:18:03;18.90;;;15.97;;
15198;SDS011;7700;48.654;9.070;2023-04-19T05:20:29;15.57;;;14.07;;
15198;SDS011;7700;48.654;9.070;2023-04-19T05:22:55;18.00;;;15.43;;
15198;SDS011;7700;48.654;9.070;2023-04-19T05:25:22;17.87;;;16.07;;
15198;SDS011;7700;48.654;9.070;2023-04-19T05:27:48;18.80;;;16.37;;
15198;SDS011;7700;48.654;9.070;2023-04-19T05:30:14;17.60;;;15.57;;
15198;SDS011;7700;48.654;9.070;2023-04-19T05:32:40;17.27;;;15.37;;
15198;SDS011;7700;48.654;9.070;2023-04-19T05:35:06;18.10;;;16.20;;
15198;SDS011;7700;48.654;9.070;2023-04-19T05:37:32;17.30;;;15.67;;
15198;SDS011;7700;48.654;9.070;2023-04-19T05:39:58;16.97;;;15.23;;
15198;SDS011;7700;48.654;9.070;2023-04-19T05:42:24;17.20;;;15.37;;
15198;SDS011;7700;48.654;9.070;2023-04-19T05:44:50;17.07;;;15.30;;
15198;SDS011;7700;48.654;9.070;2023-04-19T05:47:16;17.20;;;15.47;;
15198;SDS011;7700;48.654;9.070;2023-04-19T05:49:42;19.23;;;15.83;;
15198;SDS011;7700;48.654;9.070;2023-04-19T05:52:08;17.13;;;15.57;;
15198;SDS011;7700;48.654;9.070;2023-04-19T05:54:35;17.70;;;15.70;;
15198;SDS011;7700;48.654;9.070;2023-04-19T05:57:01;17.10;;;15.30;;
15198;SDS011;7700;48.654;9.070;2023-04-19T05:59:27;18.23;;;16.30;;
15198;SDS011;7700;48.654;9.070;2023-04-19T06:01:53;18.23;;;16.33;;
15198;SDS011;7700;48.654;9.070;2023-04-19T06:04:22;17.80;;;15.33;;
15198;SDS011;7700;48.654;9.070;2023-04-19T06:06:48;17.77;;;15.90;;
15198;SDS011;7700;48.654;9.070;2023-04-19T06:09:14;17.73;;;15.83;;
15198;SDS011;7700;48.654;9.070;2023-04-19T06:11:42;16.23;;;14.63;;
15198;SDS011;7700;48.654;9.070;2023-04-19T06:14:07;17.30;;;15.40;;
15198;SDS011;7700;48.654;9.070;2023-04-19T06:16:34;17.60;;;15.70;;
15198;SDS011;7700;48.654;9.070;2023-04-19T06:19:00;17.73;;;15.97;;
15198;SDS011;7700;48.654;9.070;2023-04-19T06:21:28;16.90;;;15.10;;
15198;SDS011;7700;48.654;9.070;2023-04-19T06:23:55;16.80;;;15.07;;
15198;SDS011;7700;48.654;9.070;2023-04-19T06:26:21;17.03;;;15.30;;
15198;SDS011;7700;48.654;9.070;2023-04-19T06:28:47;17.67;;;15.80;;
15198;SDS011;7700;48.654;9.070;2023-04-19T06:31:13;17.00;;;15.20;;
15198;SDS011;7700;48.654;9.070;2023-04-19T06:33:39;17.13;;;15.40;;
15198;SDS011;7700;48.654;9.070;2023-04-19T06:36:05;17.43;;;15.63;;
15198;SDS011;7700;48.654;9.070;2023-04-19T06:38:31;17.03;;;15.20;;
15198;SDS011;7700;48.654;9.070;2023-04-19T06:40:57;18.33;;;15.10;;
15198;SDS011;7700;48.654;9.070;2023-04-19T06:43:23;18.17;;;14.83;;
15198;SDS011;7700;48.654;9.070;2023-04-19T06:45:56;16.23;;;14.63;;
15198;SDS011;7700;48.654;9.070;2023-04-19T06:48:22;17.53;;;15.77;;
15198;SDS011;7700;48.654;9.070;2023-04-19T06:50:48;16.67;;;13.83;;
15198;SDS011;7700;48.654;9.070;2023-04-19T06:53:14;16.30;;;14.60;;
15198;SDS011;7700;48.654;9.070;2023-04-19T06:55:40;17.13;;;14.73;;
15198;SDS011;7700;48.654;9.070;2023-04-19T06:58:06;16.47;;;14.87;;
15198;SDS011;7700;48.654;9.070;2023-04-19T07:00:35;17.33;;;15.03;;
15198;SDS011;7700;48.654;9.070;2023-04-19T07:03:01;16.17;;;14.47;;
15198;SDS011;7700;48.654;9.070;2023-04-19T07:05:27;15.97;;;14.10;;
15198;SDS011;7700;48.654;9.070;2023-04-19T07:07:53;16.07;;;14.43;;
15198;SDS011;7700;48.654;9.070;2023-04-19T07:10:19;14.43;;;12.93;;
15198;SDS011;7700;48.654;9.070;2023-04-19T07:12:45;15.80;;;14.10;;
15198;SDS011;7700;48.654;9.070;2023-04-19T07:15:11;15.67;;;14.17;;
15198;SDS011;7700;48.654;9.070;2023-04-19T07:17:37;15.70;;;14.10;;
15198;SDS011;7700;48.654;9.070;2023-04-19T07:20:03;16.00;;;14.10;;
15198;SDS011;7700;48.654;9.070;2023-04-19T07:22:30;17.13;;;14.07;;
15198;SDS011;7700;48.654;9.070;2023-04-19T07:24:56;15.20;;;13.63;;
15198;SDS011;7700;48.654;9.070;2023-04-19T07:27:22;14.97;;;13.47;;
15198;SDS011;7700;48.654;9.070;2023-04-19T07:29:48;14.90;;;13.40;;
15198;SDS011;7700;48.654;9.070;2023-04-19T07:32:15;14.90;;;13.50;;
15198;SDS011;7700;48.654;9.070;2023-04-19T07:34:41;14.27;;;12.77;;
15198;SDS011;7700;48.654;9.070;2023-04-19T07:37:07;15.53;;;13.77;;
15198;SDS011;7700;48.654;9.070;2023-04-19T07:39:33;14.53;;;13.03;;
15198;SDS011;7700;48.654;9.070;2023-04-19T07:41:59;14.07;;;12.33;;
15198;SDS011;7700;48.654;9.070;2023-04-19T07:44:25;14.77;;;13.27;;
15198;SDS011;7700;48.654;9.070;2023-04-19T07:46:52;13.73;;;12.43;;
15198;SDS011;7700;48.654;9.070;2023-04-19T07:49:24;14.77;;;13.27;;
15198;SDS011;7700;48.654;9.070;2023-04-19T07:51:50;14.20;;;12.80;;
15198;SDS011;7700;48.654;9.070;2023-04-19T07:54:16;14.47;;;12.87;;
15198;SDS011;7700;48.654;9.070;2023-04-19T07:56:44;13.40;;;12.03;;
15198;SDS011;7700;48.654;9.070;2023-04-19T07:59:10;13.53;;;12.07;;
15198;SDS011;7700;48.654;9.070;2023-04-19T08:01:36;13.10;;;11.80;;
15198;SDS011;7700;48.654;9.070;2023-04-19T08:04:08;13.43;;;12.03;;
15198;SDS011;7700;48.654;9.070;2023-04-19T08:06:34;14.60;;;12.10;;
15198;SDS011;7700;48.654;9.070;2023-04-19T08:09:02;13.70;;;12.30;;
15198;SDS011;7700;48.654;9.070;2023-04-19T08:11:28;13.33;;;11.43;;
15198;SDS011;7700;48.654;9.070;2023-04-19T08:13:54;14.47;;;12.30;;
15198;SDS011;7700;48.654;9.070;2023-04-19T08:16:20;13.67;;;12.27;;
15198;SDS011;7700;48.654;9.070;2023-04-19T08:18:46;13.37;;;11.97;;
15198;SDS011;7700;48.654;9.070;2023-04-19T08:21:16;14.30;;;12.00;;
15198;SDS011;7700;48.654;9.070;2023-04-19T08:23:42;12.63;;;11.33;;
15198;SDS011;7700;48.654;9.070;2023-04-19T08:26:08;12.83;;;11.13;;
15198;SDS011;7700;48.654;9.070;2023-04-19T08:28:35;13.60;;;12.17;;
15198;SDS011;7700;48.654;9.070;2023-04-19T08:31:05;13.97;;;12.17;;
15198;SDS011;7700;48.654;9.070;2023-04-19T08:33:33;12.93;;;11.73;;
15198;SDS011;7700;48.654;9.070;2023-04-19T08:35:59;12.90;;;11.53;;
15198;SDS011;7700;48.654;9.070;2023-04-19T08:38:25;13.60;;;11.80;;
15198;SDS011;7700;48.654;9.070;2023-04-19T08:40:51;12.87;;;10.90;;
15198;SDS011;7700;48.654;9.070;2023-04-19T08:43:19;12.47;;;11.27;;
15198;SDS011;7700;48.654;9.070;2023-04-19T08:45:46;12.13;;;11.03;;
15198;SDS011;7700;48.654;9.070;2023-04-19T08:48:13;12.63;;;11.33;;
15198;SDS011;7700;48.654;9.070;2023-04-19T08:50:46;11.67;;;10.47;;
15198;SDS011;7700;48.654;9.070;2023-04-19T08:53:13;11.43;;;10.23;;
15198;SDS011;7700;48.654;9.070;2023-04-19T08:55:41;12.98;;;10.75;;
15198;SDS011;7700;48.654;9.070;2023-04-19T08:58:09;11.70;;;10.60;;
15198;SDS011;7700;48.654;9.070;2023-04-19T09:00:38;11.17;;;9.93;;
15198;SDS011;7700;48.654;9.070;2023-04-19T09:03:06;12.13;;;10.88;;
15198;SDS011;7700;48.654;9.070;2023-04-19T09:05:32;10.50;;;9.43;;
15198;SDS011;7700;48.654;9.070;2023-04-19T09:10:56;10.85;;;9.75;;
15198;SDS011;7700;48.654;9.070;2023-04-19T09:13:23;10.13;;;9.10;;
15198;SDS011;7700;48.654;9.070;2023-04-19T09:15:49;10.77;;;9.68;;
15198;SDS011;7700;48.654;9.070;2023-04-19T09:18:15;10.30;;;9.10;;
15198;SDS011;7700;48.654;9.070;2023-04-19T09:20:43;10.80;;;9.82;;
15198;SDS011;7700;48.654;9.070;2023-04-19T09:23:10;9.25;;;8.35;;
15198;SDS011;7700;48.654;9.070;2023-04-19T09:25:37;9.10;;;8.30;;
15198;SDS011;7700;48.654;9.070;2023-04-19T09:28:12;10.48;;;9.48;;
15198;SDS011;7700;48.654;9.070;2023-04-19T09:30:39;9.35;;;8.35;;
15198;SDS011;7700;48.654;9.070;2023-04-19T09:33:06;9.70;;;8.88;;
15198;SDS011;7700;48.654;9.070;2023-04-19T09:35:39;9.20;;;8.30;;
15198;SDS011;7700;48.654;9.070;2023-04-19T09:38:05;9.63;;;8.73;;
15198;SDS011;7700;48.654;9.070;2023-04-19T09:40:31;10.07;;;8.43;;
15198;SDS011;7700;48.654;9.070;2023-04-19T09:42:58;9.55;;;8.65;;
15198;SDS011;7700;48.654;9.070;2023-04-19T09:45:25;9.10;;;8.30;;
15198;SDS011;7700;48.654;9.070;2023-04-19T09:48:05;9.63;;;8.73;;
15198;SDS011;7700;48.654;9.070;2023-04-19T09:50:32;8.73;;;7.88;;
15198;SDS011;7700;48.654;9.070;2023-04-19T09:52:58;9.13;;;8.27;;
15198;SDS011;7700;48.654;9.070;2023-04-19T09:55:25;10.02;;;8.43;;
15198;SDS011;7700;48.654;9.070;2023-04-19T09:57:51;8.45;;;7.63;;
15198;SDS011;7700;48.654;9.070;2023-04-19T10:03:38;8.35;;;7.53;;
15198;SDS011;7700;48.654;9.070;2023-04-19T10:06:12;8.68;;;7.88;;
15198;SDS011;7700;48.654;9.070;2023-04-19T10:08:39;7.43;;;6.72;;
15198;SDS011;7700;48.654;9.070;2023-04-19T10:11:05;8.38;;;7.57;;
15198;SDS011;7700;48.654;9.070;2023-04-19T10:13:31;7.80;;;7.10;;
15198;SDS011;7700;48.654;9.070;2023-04-19T10:15:58;8.30;;;7.35;;
15198;SDS011;7700;48.654;9.070;2023-04-19T10:18:25;8.90;;;7.97;;
15198;SDS011;7700;48.654;9.070;2023-04-19T10:20:58;8.57;;;7.78;;
15198;SDS011;7700;48.654;9.070;2023-04-19T10:23:26;8.02;;;7.32;;
15198;SDS011;7700;48.654;9.070;2023-04-19T10:25:56;7.40;;;6.70;;
15198;SDS011;7700;48.654;9.070;2023-04-19T10:28:27;7.97;;;7.25;;
15198;SDS011;7700;48.654;9.070;2023-04-19T10:30:58;8.15;;;7.43;;
15198;SDS011;7700;48.654;9.070;2023-04-19T10:33:30;9.00;;;8.20;;
15198;SDS011;7700;48.654;9.070;2023-04-19T10:35:59;9.50;;;8.60;;
15198;SDS011;7700;48.654;9.070;2023-04-19T10:38:35;10.68;;;8.25;;
15198;SDS011;7700;48.654;9.070;2023-04-19T10:41:01;9.40;;;8.60;;
15198;SDS011;7700;48.654;9.070;2023-04-19T10:43:29;9.10;;;8.20;;
15198;SDS011;7700;48.654;9.070;2023-04-19T10:45:58;10.50;;;8.75;;
15198;SDS011;7700;48.654;9.070;2023-04-19T10:53:48;9.25;;;8.35;;
15198;SDS011;7700;48.654;9.070;2023-04-19T10:56:15;11.30;;;8.85;;
15198;SDS011;7700;48.654;9.070;2023-04-19T11:04:03;7.55;;;6.82;;
15198;SDS011;7700;48.654;9.070;2023-04-19T11:06:30;9.25;;;8.32;;
15198;SDS011;7700;48.654;9.070;2023-04-19T11:08:56;8.93;;;8.00;;
15198;SDS011;7700;48.654;9.070;2023-04-19T11:11:22;8.40;;;7.60;;
15198;SDS011;7700;48.654;9.070;2023-04-19T11:13:49;8.35;;;7.55;;
15198;SDS011;7700;48.654;9.070;2023-04-19T11:16:15;8.50;;;7.57;;
15198;SDS011;7700;48.654;9.070;2023-04-19T11:18:43;8.80;;;8.05;;
15198;SDS011;7700;48.654;9.070;2023-04-19T11:21:12;9.88;;;8.98;;
15198;SDS011;7700;48.654;9.070;2023-04-19T11:23:41;9.07;;;8.18;;
15198;SDS011;7700;48.654;9.070;2023-04-19T11:26:10;8.27;;;7.57;;
15198;SDS011;7700;48.654;9.070;2023-04-19T11:28:36;9.40;;;8.45;;
15198;SDS011;7700;48.654;9.070;2023-04-19T11:31:02;10.25;;;9.05;;
15198;SDS011;7700;48.654;9.070;2023-04-19T11:33:35;9.70;;;8.90;;
15198;SDS011;7700;48.654;9.070;2023-04-19T11:36:01;8.70;;;7.80;;
15198;SDS011;7700;48.654;9.070;2023-04-19T11:38:28;9.55;;;8.35;;
15198;SDS011;7700;48.654;9.070;2023-04-19T11:41:00;10.57;;;8.48;;
15198;SDS011;7700;48.654;9.070;2023-04-19T11:43:34;9.00;;;8.20;;
15198;SDS011;7700;48.654;9.070;2023-04-19T11:46:04;9.63;;;8.73;;
15198;SDS011;7700;48.654;9.070;2023-04-19T11:48:31;9.70;;;8.70;;
15198;SDS011;7700;48.654;9.070;2023-04-19T11:50:57;9.77;;;8.85;;
15198;SDS011;7700;48.654;9.070;2023-04-19T11:53:24;9.97;;;9.07;;
15198;SDS011;7700;48.654;9.070;2023-04-19T11:55:53;9.27;;;8.35;;
15198;SDS011;7700;48.654;9.070;2023-04-19T12:00:49;9.80;;;8.90;;
15198;SDS011;7700;48.654;9.070;2023-04-19T12:03:15;10.70;;;8.83;;
15198;SDS011;7700;48.654;9.070;2023-04-19T12:05:54;10.23;;;9.30;;
15198;SDS011;7700;48.654;9.070;2023-04-19T12:08:37;9.60;;;8.60;;
15198;SDS011;7700;48.654;9.070;2023-04-19T12:11:04;11.53;;;9.77;;
15198;SDS011;7700;48.654;9.070;2023-04-19T12:13:30;10.23;;;9.15;;
15198;SDS011;7700;48.654;9.070;2023-04-19T12:15:57;10.57;;;9.50;;
15198;SDS011;7700;48.654;9.070;2023-04-19T12:18:24;10.77;;;9.40;;
15198;SDS011;7700;48.654;9.070;2023-04-19T12:20:51;9.55;;;8.65;;
15198;SDS011;7700;48.654;9.070;2023-04-19T12:23:18;10.37;;;9.17;;
15198;SDS011;7700;48.654;9.070;2023-04-19T12:25:45;10.63;;;9.13;;
15198;SDS011;7700;48.654;9.070;2023-04-19T12:28:11;11.43;;;10.30;;
15198;SDS011;7700;48.654;9.070;2023-04-19T12:30:38;12.03;;;9.63;;
15198;SDS011;7700;48.654;9.070;2023-04-19T12:33:05;10.90;;;9.90;;
15198;SDS011;7700;48.654;9.070;2023-04-19T12:35:31;11.17;;;9.27;;
15198;SDS011;7700;48.654;9.070;2023-04-19T12:37:58;11.33;;;10.10;;
15198;SDS011;7700;48.654;9.070;2023-04-19T12:40:25;11.83;;;10.57;;
15198;SDS011;7700;48.654;9.070;2023-04-19T12:42:52;11.93;;;10.63;;
15198;SDS011;7700;48.654;9.070;2023-04-19T12:45:18;12.03;;;10.80;;
15198;SDS011;7700;48.654;9.070;2023-04-19T12:47:45;12.23;;;11.03;;
15198;SDS011;7700;48.654;9.070;2023-04-19T12:50:12;13.97;;;12.57;;
15198;SDS011;7700;48.654;9.070;2023-04-19T12:52:38;13.30;;;12.00;;
15198;SDS011;7700;48.654;9.070;2023-04-19T12:55:04;13.63;;;12.33;;
15198;SDS011;7700;48.654;9.070;2023-04-19T12:57:31;13.13;;;11.80;;
15198;SDS011;7700;48.654;9.070;2023-04-19T12:59:57;13.90;;;12.50;;
15198;SDS011;7700;48.654;9.070;2023-04-19T13:02:23;13.87;;;12.43;;
15198;SDS011;7700;48.654;9.070;2023-04-19T13:04:49;14.67;;;13.13;;
15198;SDS011;7700;48.654;9.070;2023-04-19T13:07:15;13.60;;;12.20;;
15198;SDS011;7700;48.654;9.070;2023-04-19T13:09:41;14.40;;;13.10;;
15198;SDS011;7700;48.654;9.070;2023-04-19T13:12:07;15.97;;;14.43;;
15198;SDS011;7700;48.654;9.070;2023-04-19T13:14:33;14.50;;;13.03;;
15198;SDS011;7700;48.654;9.070;2023-04-19T13:16:59;16.90;;;14.03;;
15198;SDS011;7700;48.654;9.070;2023-04-19T13:19:25;16.53;;;14.87;;
15198;SDS011;7700;48.654;9.070;2023-04-19T13:21:51;19.53;;;17.47;;
15198;SDS011;7700;48.654;9.070;2023-04-19T13:24:17;21.00;;;17.77;;
15198;SDS011;7700;48.654;9.070;2023-04-19T13:26:43;21.47;;;18.53;;
15198;SDS011;7700;48.654;9.070;2023-04-19T13:29:12;29.77;;;18.87;;
15198;SDS011;7700;48.654;9.070;2023-04-19T13:31:38;24.53;;;19.67;;
15198;SDS011;7700;48.654;9.070;2023-04-19T13:34:07;27.27;;;21.07;;
15198;SDS011;7700;48.654;9.070;2023-04-19T13:36:33;26.33;;;20.93;;
15198;SDS011;7700;48.654;9.070;2023-04-19T13:38:59;24.17;;;20.30;;
15198;SDS011;7700;48.654;9.070;2023-04-19T13:41:25;24.90;;;20.20;;
15198;SDS011;7700;48.654;9.070;2023-04-19T13:43:51;27.67;;;22.57;;
15198;SDS011;7700;48.654;9.070;2023-04-19T13:46:17;23.43;;;19.10;;
15198;SDS011;7700;48.654;9.070;2023-04-19T13:48:43;23.27;;;20.20;;
15198;SDS011;7700;48.654;9.070;2023-04-19T13:51:09;23.00;;;20.50;;
15198;SDS011;7700;48.654;9.070;2023-04-19T13:53:35;22.97;;;19.23;;
15198;SDS011;7700;48.654;9.070;2023-04-19T13:56:02;22.43;;;19.57;;
15198;SDS011;7700;48.654;9.070;2023-04-19T13:58:28;23.13;;;20.07;;
15198;SDS011;7700;48.654;9.070;2023-04-19T14:00:54;25.70;;;19.17;;
15198;SDS011;7700;48.654;9.070;2023-04-19T14:03:21;20.80;;;18.33;;
15198;SDS011;7700;48.654;9.070;2023-04-19T14:05:47;21.70;;;18.73;;
15198;SDS011;7700;48.654;9.070;2023-04-19T14:08:13;21.93;;;19.17;;
15198;SDS011;7700;48.654;9.070;2023-04-19T14:10:39;19.57;;;17.47;;
15198;SDS011;7700;48.654;9.070;2023-04-19T14:13:05;20.10;;;17.97;;
15198;SDS011;7700;48.654;9.070;2023-04-19T14:15:31;19.23;;;17.23;;
15198;SDS011;7700;48.654;9.070;2023-04-19T14:17:59;19.07;;;17.07;;
15198;SDS011;7700;48.654;9.070;2023-04-19T14:20:25;18.83;;;16.30;;
15198;SDS011;7700;48.654;9.070;2023-04-19T14:22:51;19.40;;;16.47;;
15198;SDS011;7700;48.654;9.070;2023-04-19T14:25:19;19.53;;;16.00;;
15198;SDS011;7700;48.654;9.070;2023-04-19T14:27:45;18.03;;;16.13;;
15198;SDS011;7700;48.654;9.070;2023-04-19T14:30:11;17.87;;;14.93;;
15198;SDS011;7700;48.654;9.070;2023-04-19T14:32:37;17.27;;;15.47;;
15198;SDS011;7700;48.654;9.070;2023-04-19T14:35:03;20.33;;;16.53;;
15198;SDS011;7700;48.654;9.070;2023-04-19T14:37:29;18.03;;;16.13;;
15198;SDS011;7700;48.654;9.070;2023-04-19T14:39:55;17.40;;;15.60;;
15198;SDS011;7700;48.654;9.070;2023-04-19T14:42:21;18.23;;;15.47;;
15198;SDS011;7700;48.654;9.070;2023-04-19T14:44:49;15.73;;;14.10;;
15198;SDS011;7700;48.654;9.070;2023-04-19T14:47:15;14.97;;;13.43;;
15198;SDS011;7700;48.654;9.070;2023-04-19T14:49:41;17.63;;;15.93;;
15198;SDS011;7700;48.654;9.070;2023-04-19T14:52:07;18.23;;;15.10;;
15198;SDS011;7700;48.654;9.070;2023-04-19T14:54:33;17.70;;;15.63;;